createdAt,value
2022-10-02T00:00:08.000Z,12.5
2022-10-02T00:00:23.000Z,12.5
2022-10-02T00:00:38.000Z,12.5
2022-10-02T00:00:52.000Z,12.399999618530273
2022-10-02T00:01:07.000Z,12.399999618530273
2022-10-02T00:01:23.000Z,12.300000190734863
2022-10-02T00:01:38.000Z,12.399999618530273
2022-10-02T00:01:53.000Z,12.399999618530273
2022-10-02T00:02:08.000Z,12.399999618530273
2022-10-02T00:02:23.000Z,12.5
2022-10-02T00:02:38.000Z,12.5
2022-10-02T00:02:53.000Z,12.5
2022-10-02T00:03:08.000Z,12.399999618530273
2022-10-02T00:03:23.000Z,12.300000190734863
2022-10-02T00:03:38.000Z,12.300000190734863
2022-10-02T00:03:53.000Z,12.399999618530273
2022-10-02T00:04:08.000Z,12.5
2022-10-02T00:04:23.000Z,12.5
2022-10-02T00:04:38.000Z,12.5
2022-10-02T00:04:53.000Z,12.600000381469727
2022-10-02T00:05:08.000Z,12.600000381469727
2022-10-02T00:05:23.000Z,12.5
2022-10-02T00:05:38.000Z,12.600000381469727
2022-10-02T00:05:53.000Z,12.600000381469727
2022-10-02T00:06:07.000Z,12.600000381469727
2022-10-02T00:06:22.000Z,12.699999809265137
2022-10-02T00:06:37.000Z,12.699999809265137
2022-10-02T00:06:53.000Z,12.699999809265137
2022-10-02T00:07:08.000Z,12.699999809265137
2022-10-02T00:07:23.000Z,12.699999809265137
2022-10-02T00:07:38.000Z,12.699999809265137
2022-10-02T00:07:53.000Z,12.699999809265137
2022-10-02T00:08:08.000Z,12.699999809265137
2022-10-02T00:08:23.000Z,12.699999809265137
2022-10-02T00:08:38.000Z,12.699999809265137
2022-10-02T00:08:53.000Z,12.600000381469727
2022-10-02T00:09:08.000Z,12.5
2022-10-02T00:09:23.000Z,12.5
2022-10-02T00:09:38.000Z,12.600000381469727
2022-10-02T00:09:53.000Z,12.600000381469727
2022-10-02T00:10:08.000Z,12.600000381469727
2022-10-02T00:10:23.000Z,12.600000381469727
2022-10-02T00:10:38.000Z,12.600000381469727
2022-10-02T00:10:53.000Z,12.600000381469727
2022-10-02T00:11:08.000Z,12.600000381469727
2022-10-02T00:11:22.000Z,12.600000381469727
2022-10-02T00:11:37.000Z,12.699999809265137
2022-10-02T00:11:53.000Z,12.699999809265137
2022-10-02T00:12:08.000Z,12.699999809265137
2022-10-02T00:12:23.000Z,12.800000190734863
2022-10-02T00:12:38.000Z,12.800000190734863
2022-10-02T00:12:53.000Z,12.800000190734863
2022-10-02T00:13:08.000Z,12.800000190734863
2022-10-02T00:13:23.000Z,12.800000190734863
2022-10-02T00:13:38.000Z,12.800000190734863
2022-10-02T00:13:53.000Z,12.800000190734863
2022-10-02T00:14:08.000Z,12.800000190734863
2022-10-02T00:14:23.000Z,12.800000190734863
2022-10-02T00:14:38.000Z,12.899999618530273
2022-10-02T00:14:53.000Z,12.899999618530273
2022-10-02T00:15:08.000Z,12.899999618530273
2022-10-02T00:15:23.000Z,12.800000190734863
2022-10-02T00:15:38.000Z,12.899999618530273
2022-10-02T00:15:53.000Z,12.899999618530273
2022-10-02T00:16:08.000Z,12.899999618530273
2022-10-02T00:16:23.000Z,12.899999618530273
2022-10-02T00:16:37.000Z,12.899999618530273
2022-10-02T00:16:52.000Z,12.899999618530273
2022-10-02T00:17:07.000Z,12.899999618530273
2022-10-02T00:17:23.000Z,12.899999618530273
2022-10-02T00:17:38.000Z,12.899999618530273
2022-10-02T00:17:53.000Z,12.899999618530273
2022-10-02T00:18:08.000Z,12.899999618530273
2022-10-02T00:18:23.000Z,12.800000190734863
2022-10-02T00:18:38.000Z,12.899999618530273
2022-10-02T00:18:53.000Z,12.899999618530273
2022-10-02T00:19:08.000Z,12.800000190734863
2022-10-02T00:19:23.000Z,12.800000190734863
2022-10-02T00:19:38.000Z,12.800000190734863
2022-10-02T00:19:53.000Z,12.800000190734863
2022-10-02T00:20:08.000Z,12.800000190734863
2022-10-02T00:20:23.000Z,12.800000190734863
2022-10-02T00:20:38.000Z,12.800000190734863
2022-10-02T00:20:53.000Z,12.800000190734863
2022-10-02T00:21:08.000Z,12.800000190734863
2022-10-02T00:21:23.000Z,12.800000190734863
2022-10-02T00:21:38.000Z,12.800000190734863
2022-10-02T00:21:52.000Z,12.899999618530273
2022-10-02T00:22:07.000Z,12.899999618530273
2022-10-02T00:22:22.000Z,12.899999618530273
2022-10-02T00:22:38.000Z,12.800000190734863
2022-10-02T00:22:53.000Z,12.800000190734863
2022-10-02T00:23:08.000Z,12.800000190734863
2022-10-02T00:23:23.000Z,12.899999618530273
2022-10-02T00:23:38.000Z,12.899999618530273
2022-10-02T00:23:53.000Z,12.899999618530273
2022-10-02T00:24:08.000Z,12.800000190734863
2022-10-02T00:24:23.000Z,12.699999809265137
2022-10-02T00:24:38.000Z,12.699999809265137
2022-10-02T00:24:53.000Z,12.699999809265137
2022-10-02T00:25:08.000Z,12.699999809265137
2022-10-02T00:25:23.000Z,12.699999809265137
2022-10-02T00:25:38.000Z,12.800000190734863
2022-10-02T00:25:53.000Z,12.800000190734863
2022-10-02T00:26:08.000Z,12.800000190734863
2022-10-02T00:26:23.000Z,12.800000190734863
2022-10-02T00:26:38.000Z,12.899999618530273
2022-10-02T00:26:53.000Z,12.899999618530273
2022-10-02T00:27:08.000Z,12.899999618530273
2022-10-02T00:27:22.000Z,12.899999618530273
2022-10-02T00:27:37.000Z,12.899999618530273
2022-10-02T00:27:52.000Z,12.899999618530273
2022-10-02T00:28:08.000Z,12.899999618530273
2022-10-02T00:28:23.000Z,12.899999618530273
2022-10-02T00:28:38.000Z,12.899999618530273
2022-10-02T00:28:53.000Z,12.899999618530273
2022-10-02T00:29:08.000Z,12.899999618530273
2022-10-02T00:29:23.000Z,12.899999618530273
2022-10-02T00:29:38.000Z,12.699999809265137
2022-10-02T00:29:53.000Z,12.800000190734863
2022-10-02T00:30:08.000Z,12.899999618530273
2022-10-02T00:30:23.000Z,12.899999618530273
2022-10-02T00:30:38.000Z,12.899999618530273
2022-10-02T00:30:53.000Z,12.899999618530273
2022-10-02T00:31:08.000Z,13.0
2022-10-02T00:31:23.000Z,13.0
2022-10-02T00:31:38.000Z,12.899999618530273
2022-10-02T00:31:53.000Z,12.899999618530273
2022-10-02T00:32:08.000Z,12.899999618530273
2022-10-02T00:32:23.000Z,13.0
2022-10-02T00:32:38.000Z,13.0
2022-10-02T00:32:52.000Z,13.0
2022-10-02T00:33:07.000Z,13.0
2022-10-02T00:33:22.000Z,13.0
2022-10-02T00:33:38.000Z,13.0
2022-10-02T00:33:53.000Z,13.0
2022-10-02T00:34:08.000Z,13.0
2022-10-02T00:34:23.000Z,13.0
2022-10-02T00:34:38.000Z,13.0
2022-10-02T00:34:53.000Z,13.100000381469727
2022-10-02T00:35:08.000Z,13.100000381469727
2022-10-02T00:35:23.000Z,13.0
2022-10-02T00:35:38.000Z,13.0
2022-10-02T00:35:53.000Z,13.0
2022-10-02T00:36:08.000Z,13.0
2022-10-02T00:36:23.000Z,13.0
2022-10-02T00:36:38.000Z,13.0
2022-10-02T00:36:53.000Z,13.0
2022-10-02T00:37:08.000Z,12.899999618530273
2022-10-02T00:37:23.000Z,12.899999618530273
2022-10-02T00:37:38.000Z,12.800000190734863
2022-10-02T00:37:53.000Z,12.899999618530273
2022-10-02T00:38:08.000Z,12.899999618530273
2022-10-02T00:38:23.000Z,12.899999618530273
2022-10-02T00:38:37.000Z,12.800000190734863
2022-10-02T00:38:52.000Z,12.899999618530273
2022-10-02T00:39:08.000Z,12.899999618530273
2022-10-02T00:39:23.000Z,12.899999618530273
2022-10-02T00:39:38.000Z,12.800000190734863
2022-10-02T00:39:53.000Z,12.899999618530273
2022-10-02T00:40:08.000Z,12.899999618530273
2022-10-02T00:40:23.000Z,13.0
2022-10-02T00:40:38.000Z,13.0
2022-10-02T00:40:53.000Z,13.0
2022-10-02T00:41:08.000Z,13.0
2022-10-02T00:41:23.000Z,13.0
2022-10-02T00:41:38.000Z,13.0
2022-10-02T00:41:53.000Z,13.0
2022-10-02T00:42:08.000Z,13.0
2022-10-02T00:42:23.000Z,13.0
2022-10-02T00:42:38.000Z,12.899999618530273
2022-10-02T00:42:53.000Z,12.899999618530273
2022-10-02T00:43:08.000Z,12.899999618530273
2022-10-02T00:43:23.000Z,12.899999618530273
2022-10-02T00:43:38.000Z,12.899999618530273
2022-10-02T00:43:53.000Z,12.899999618530273
2022-10-02T00:44:08.000Z,13.0
2022-10-02T00:44:22.000Z,13.0
2022-10-02T00:44:37.000Z,13.0
2022-10-02T00:44:53.000Z,13.0
2022-10-02T00:45:08.000Z,13.0
2022-10-02T00:45:23.000Z,13.0
2022-10-02T00:45:38.000Z,13.0
2022-10-02T00:45:53.000Z,12.899999618530273
2022-10-02T00:46:08.000Z,12.899999618530273
2022-10-02T00:46:23.000Z,12.899999618530273
2022-10-02T00:46:38.000Z,12.899999618530273
2022-10-02T00:46:53.000Z,12.899999618530273
2022-10-02T00:47:08.000Z,13.0
2022-10-02T00:47:23.000Z,12.899999618530273
2022-10-02T00:47:38.000Z,13.0
2022-10-02T00:47:53.000Z,12.899999618530273
2022-10-02T00:48:08.000Z,13.0
2022-10-02T00:48:23.000Z,13.0
2022-10-02T00:48:38.000Z,13.0
2022-10-02T00:48:53.000Z,12.899999618530273
2022-10-02T00:49:08.000Z,12.899999618530273
2022-10-02T00:49:23.000Z,12.899999618530273
2022-10-02T00:49:38.000Z,12.899999618530273
2022-10-02T00:49:52.000Z,12.699999809265137
2022-10-02T00:50:07.000Z,12.699999809265137
2022-10-02T00:50:22.000Z,12.699999809265137
2022-10-02T00:50:38.000Z,12.699999809265137
2022-10-02T00:50:53.000Z,12.699999809265137
2022-10-02T00:51:08.000Z,12.800000190734863
2022-10-02T00:51:23.000Z,12.800000190734863
2022-10-02T00:51:38.000Z,12.699999809265137
2022-10-02T00:51:53.000Z,12.800000190734863
2022-10-02T00:52:08.000Z,12.800000190734863
2022-10-02T00:52:23.000Z,12.899999618530273
2022-10-02T00:52:38.000Z,12.899999618530273
2022-10-02T00:52:53.000Z,12.899999618530273
2022-10-02T00:53:08.000Z,12.899999618530273
2022-10-02T00:53:23.000Z,12.899999618530273
2022-10-02T00:53:38.000Z,12.899999618530273
2022-10-02T00:53:53.000Z,12.800000190734863
2022-10-02T00:54:08.000Z,12.800000190734863
2022-10-02T00:54:23.000Z,12.800000190734863
2022-10-02T00:54:38.000Z,12.800000190734863
2022-10-02T00:54:53.000Z,12.699999809265137
2022-10-02T00:55:08.000Z,12.800000190734863
2022-10-02T00:55:22.000Z,12.800000190734863
2022-10-02T00:55:37.000Z,12.800000190734863
2022-10-02T00:55:52.000Z,12.800000190734863
2022-10-02T00:56:08.000Z,12.899999618530273
2022-10-02T00:56:23.000Z,12.899999618530273
2022-10-02T00:56:38.000Z,12.899999618530273
2022-10-02T00:56:53.000Z,12.899999618530273
2022-10-02T00:57:08.000Z,12.899999618530273
2022-10-02T00:57:23.000Z,12.800000190734863
2022-10-02T00:57:38.000Z,12.800000190734863
2022-10-02T00:57:53.000Z,12.699999809265137
2022-10-02T00:58:08.000Z,12.600000381469727
2022-10-02T00:58:23.000Z,12.5
2022-10-02T00:58:38.000Z,12.600000381469727
2022-10-02T00:58:53.000Z,12.600000381469727
2022-10-02T00:59:08.000Z,12.699999809265137
2022-10-02T00:59:23.000Z,12.699999809265137
2022-10-02T00:59:38.000Z,12.699999809265137
2022-10-02T00:59:53.000Z,12.800000190734863
2022-10-02T01:00:08.000Z,12.800000190734863
2022-10-02T01:00:23.000Z,12.800000190734863
2022-10-02T01:00:38.000Z,12.800000190734863
2022-10-02T01:00:53.000Z,12.800000190734863
2022-10-02T01:01:07.000Z,12.800000190734863
2022-10-02T01:01:22.000Z,12.800000190734863
2022-10-02T01:01:38.000Z,12.800000190734863
2022-10-02T01:01:53.000Z,12.800000190734863
2022-10-02T01:02:08.000Z,12.800000190734863
2022-10-02T01:02:23.000Z,12.800000190734863
2022-10-02T01:02:38.000Z,12.800000190734863
2022-10-02T01:02:53.000Z,12.800000190734863
2022-10-02T01:03:08.000Z,12.800000190734863
2022-10-02T01:03:23.000Z,12.800000190734863
2022-10-02T01:03:38.000Z,12.699999809265137
2022-10-02T01:03:53.000Z,12.800000190734863
2022-10-02T01:04:08.000Z,12.800000190734863
2022-10-02T01:04:23.000Z,12.800000190734863
2022-10-02T01:04:38.000Z,12.800000190734863
2022-10-02T01:04:53.000Z,12.800000190734863
2022-10-02T01:05:08.000Z,12.800000190734863
2022-10-02T01:05:23.000Z,12.800000190734863
2022-10-02T01:05:38.000Z,12.800000190734863
2022-10-02T01:05:53.000Z,12.800000190734863
2022-10-02T01:06:08.000Z,12.800000190734863
2022-10-02T01:06:22.000Z,12.800000190734863
2022-10-02T01:06:37.000Z,12.800000190734863
2022-10-02T01:06:52.000Z,12.699999809265137
2022-10-02T01:07:08.000Z,12.699999809265137
2022-10-02T01:07:23.000Z,12.600000381469727
2022-10-02T01:07:38.000Z,12.600000381469727
2022-10-02T01:07:53.000Z,12.600000381469727
2022-10-02T01:08:08.000Z,12.5
2022-10-02T01:08:23.000Z,12.5
2022-10-02T01:08:38.000Z,12.5
2022-10-02T01:08:53.000Z,12.600000381469727
2022-10-02T01:09:08.000Z,12.600000381469727
2022-10-02T01:09:23.000Z,12.699999809265137
2022-10-02T01:09:38.000Z,12.699999809265137
2022-10-02T01:09:53.000Z,12.699999809265137
2022-10-02T01:10:08.000Z,12.699999809265137
2022-10-02T01:10:23.000Z,12.699999809265137
2022-10-02T01:10:38.000Z,12.699999809265137
2022-10-02T01:10:53.000Z,12.699999809265137
2022-10-02T01:11:08.000Z,12.699999809265137
2022-10-02T01:11:23.000Z,12.600000381469727
2022-10-02T01:11:37.000Z,12.699999809265137
2022-10-02T01:11:52.000Z,12.699999809265137
2022-10-02T01:12:07.000Z,12.699999809265137
2022-10-02T01:12:23.000Z,12.600000381469727
2022-10-02T01:12:38.000Z,12.699999809265137
2022-10-02T01:12:53.000Z,12.699999809265137
2022-10-02T01:13:08.000Z,12.699999809265137
2022-10-02T01:13:23.000Z,12.699999809265137
2022-10-02T01:13:38.000Z,12.699999809265137
2022-10-02T01:13:53.000Z,12.699999809265137
2022-10-02T01:14:08.000Z,12.600000381469727
2022-10-02T01:14:23.000Z,12.699999809265137
2022-10-02T01:14:38.000Z,12.699999809265137
2022-10-02T01:14:53.000Z,12.699999809265137
2022-10-02T01:15:08.000Z,12.699999809265137
2022-10-02T01:15:23.000Z,12.699999809265137
2022-10-02T01:15:38.000Z,12.699999809265137
2022-10-02T01:15:53.000Z,12.699999809265137
2022-10-02T01:16:08.000Z,12.699999809265137
2022-10-02T01:16:23.000Z,12.699999809265137
2022-10-02T01:16:38.000Z,12.699999809265137
2022-10-02T01:16:53.000Z,12.699999809265137
2022-10-02T01:17:07.000Z,12.600000381469727
2022-10-02T01:17:22.000Z,12.5
2022-10-02T01:17:38.000Z,12.399999618530273
2022-10-02T01:17:53.000Z,12.399999618530273
2022-10-02T01:18:08.000Z,12.5
2022-10-02T01:18:23.000Z,12.5
2022-10-02T01:18:38.000Z,12.5
2022-10-02T01:18:53.000Z,12.5
2022-10-02T01:19:08.000Z,12.5
2022-10-02T01:19:23.000Z,12.5
2022-10-02T01:19:38.000Z,12.600000381469727
2022-10-02T01:19:53.000Z,12.600000381469727
2022-10-02T01:20:08.000Z,12.600000381469727
2022-10-02T01:20:23.000Z,12.600000381469727
2022-10-02T01:20:38.000Z,12.5
2022-10-02T01:20:53.000Z,12.5
2022-10-02T01:21:08.000Z,12.5
2022-10-02T01:21:23.000Z,12.5
2022-10-02T01:21:38.000Z,12.600000381469727
2022-10-02T01:21:53.000Z,12.5
2022-10-02T01:22:08.000Z,12.5
2022-10-02T01:22:22.000Z,12.600000381469727
2022-10-02T01:22:37.000Z,12.5
2022-10-02T01:22:53.000Z,12.5
2022-10-02T01:23:08.000Z,12.5
2022-10-02T01:23:23.000Z,12.5
2022-10-02T01:23:38.000Z,12.5
2022-10-02T01:23:53.000Z,12.600000381469727
2022-10-02T01:24:08.000Z,12.600000381469727
2022-10-02T01:24:23.000Z,12.600000381469727
2022-10-02T01:24:38.000Z,12.600000381469727
2022-10-02T01:24:53.000Z,12.600000381469727
2022-10-02T01:25:08.000Z,12.5
2022-10-02T01:25:23.000Z,12.600000381469727
2022-10-02T01:25:38.000Z,12.5
2022-10-02T01:25:53.000Z,12.5
2022-10-02T01:26:08.000Z,12.5
2022-10-02T01:26:23.000Z,12.5
2022-10-02T01:26:38.000Z,12.399999618530273
2022-10-02T01:26:53.000Z,12.5
2022-10-02T01:27:08.000Z,12.5
2022-10-02T01:27:23.000Z,12.5
2022-10-02T01:27:37.000Z,12.5
2022-10-02T01:27:52.000Z,12.5
2022-10-02T01:28:07.000Z,12.600000381469727
2022-10-02T01:28:23.000Z,12.600000381469727
2022-10-02T01:28:38.000Z,12.5
2022-10-02T01:28:53.000Z,12.600000381469727
2022-10-02T01:29:08.000Z,12.600000381469727
2022-10-02T01:29:23.000Z,12.600000381469727
2022-10-02T01:29:38.000Z,12.600000381469727
2022-10-02T01:29:53.000Z,12.600000381469727
2022-10-02T01:30:08.000Z,12.600000381469727
2022-10-02T01:30:23.000Z,12.600000381469727
2022-10-02T01:30:38.000Z,12.600000381469727
2022-10-02T01:30:53.000Z,12.600000381469727
2022-10-02T01:31:08.000Z,12.699999809265137
2022-10-02T01:31:23.000Z,12.699999809265137
2022-10-02T01:31:38.000Z,12.699999809265137
2022-10-02T01:31:53.000Z,12.800000190734863
2022-10-02T01:32:08.000Z,12.699999809265137
2022-10-02T01:32:23.000Z,12.800000190734863
2022-10-02T01:32:38.000Z,12.800000190734863
2022-10-02T01:32:53.000Z,12.800000190734863
2022-10-02T01:33:07.000Z,12.800000190734863
2022-10-02T01:33:22.000Z,12.800000190734863
2022-10-02T01:33:37.000Z,12.899999618530273
2022-10-02T01:33:53.000Z,12.899999618530273
2022-10-02T01:34:08.000Z,12.899999618530273
2022-10-02T01:34:23.000Z,12.899999618530273
2022-10-02T01:34:38.000Z,13.0
2022-10-02T01:34:53.000Z,13.0
2022-10-02T01:35:08.000Z,13.0
2022-10-02T01:35:23.000Z,12.899999618530273
2022-10-02T01:35:38.000Z,12.899999618530273
2022-10-02T01:35:53.000Z,12.899999618530273
2022-10-02T01:36:08.000Z,13.0
2022-10-02T01:36:23.000Z,13.0
2022-10-02T01:36:38.000Z,13.0
2022-10-02T01:36:53.000Z,13.0
2022-10-02T01:37:08.000Z,13.0
2022-10-02T01:37:23.000Z,13.100000381469727
2022-10-02T01:37:38.000Z,13.100000381469727
2022-10-02T01:37:53.000Z,13.100000381469727
2022-10-02T01:38:08.000Z,13.100000381469727
2022-10-02T01:38:23.000Z,13.100000381469727
2022-10-02T01:38:38.000Z,13.0
2022-10-02T01:38:53.000Z,13.100000381469727
2022-10-02T01:39:07.000Z,13.100000381469727
2022-10-02T01:39:22.000Z,13.100000381469727
2022-10-02T01:39:38.000Z,13.100000381469727
2022-10-02T01:39:53.000Z,13.100000381469727
2022-10-02T01:40:08.000Z,13.100000381469727
2022-10-02T01:40:23.000Z,13.199999809265137
2022-10-02T01:40:38.000Z,13.199999809265137
2022-10-02T01:40:53.000Z,13.199999809265137
2022-10-02T01:41:08.000Z,13.100000381469727
2022-10-02T01:41:23.000Z,13.100000381469727
2022-10-02T01:41:38.000Z,13.100000381469727
2022-10-02T01:41:53.000Z,13.199999809265137
2022-10-02T01:42:08.000Z,13.199999809265137
2022-10-02T01:42:23.000Z,13.199999809265137
2022-10-02T01:42:38.000Z,13.199999809265137
2022-10-02T01:42:53.000Z,13.199999809265137
2022-10-02T01:43:08.000Z,13.199999809265137
2022-10-02T01:43:23.000Z,13.199999809265137
2022-10-02T01:43:38.000Z,13.199999809265137
2022-10-02T01:43:53.000Z,13.199999809265137
2022-10-02T01:44:08.000Z,13.199999809265137
2022-10-02T01:44:23.000Z,13.199999809265137
2022-10-02T01:44:38.000Z,13.199999809265137
2022-10-02T01:44:53.000Z,13.199999809265137
2022-10-02T01:45:07.000Z,13.199999809265137
2022-10-02T01:45:22.000Z,13.199999809265137
2022-10-02T01:45:37.000Z,13.199999809265137
2022-10-02T01:45:53.000Z,13.199999809265137
2022-10-02T01:46:08.000Z,13.199999809265137
2022-10-02T01:46:23.000Z,13.199999809265137
2022-10-02T01:46:38.000Z,13.199999809265137
2022-10-02T01:46:53.000Z,13.199999809265137
2022-10-02T01:47:08.000Z,13.199999809265137
2022-10-02T01:47:23.000Z,13.199999809265137
2022-10-02T01:47:38.000Z,13.199999809265137
2022-10-02T01:47:53.000Z,13.199999809265137
2022-10-02T01:48:08.000Z,13.100000381469727
2022-10-02T01:48:23.000Z,13.100000381469727
2022-10-02T01:48:38.000Z,13.199999809265137
2022-10-02T01:48:53.000Z,13.199999809265137
2022-10-02T01:49:08.000Z,13.199999809265137
2022-10-02T01:49:23.000Z,13.199999809265137
2022-10-02T01:49:38.000Z,13.199999809265137
2022-10-02T01:49:53.000Z,13.199999809265137
2022-10-02T01:50:08.000Z,13.199999809265137
2022-10-02T01:50:23.000Z,13.199999809265137
2022-10-02T01:50:38.000Z,13.199999809265137
2022-10-02T01:50:53.000Z,13.199999809265137
2022-10-02T01:51:08.000Z,13.199999809265137
2022-10-02T01:51:22.000Z,13.199999809265137
2022-10-02T01:51:37.000Z,13.199999809265137
2022-10-02T01:51:52.000Z,13.199999809265137
2022-10-02T01:52:08.000Z,13.199999809265137
2022-10-02T01:52:23.000Z,13.199999809265137
2022-10-02T01:52:38.000Z,13.0
2022-10-02T01:52:53.000Z,13.100000381469727
2022-10-02T01:53:08.000Z,13.100000381469727
2022-10-02T01:53:23.000Z,13.100000381469727
2022-10-02T01:53:38.000Z,13.100000381469727
2022-10-02T01:53:53.000Z,13.100000381469727
2022-10-02T01:54:08.000Z,12.899999618530273
2022-10-02T01:54:23.000Z,12.899999618530273
2022-10-02T01:54:38.000Z,13.0
2022-10-02T01:54:53.000Z,13.0
2022-10-02T01:55:08.000Z,13.0
2022-10-02T01:55:23.000Z,13.0
2022-10-02T01:55:38.000Z,12.899999618530273
2022-10-02T01:55:53.000Z,13.0
2022-10-02T01:56:08.000Z,12.899999618530273
2022-10-02T01:56:23.000Z,13.0
2022-10-02T01:56:38.000Z,12.899999618530273
2022-10-02T01:56:53.000Z,12.899999618530273
2022-10-02T01:57:08.000Z,13.0
2022-10-02T01:57:23.000Z,12.899999618530273
2022-10-02T01:57:38.000Z,13.0
2022-10-02T01:57:52.000Z,13.0
2022-10-02T01:58:07.000Z,13.0
2022-10-02T01:58:22.000Z,13.100000381469727
2022-10-02T01:58:38.000Z,13.0
2022-10-02T01:58:53.000Z,12.800000190734863
2022-10-02T01:59:08.000Z,12.899999618530273
2022-10-02T01:59:23.000Z,13.0
2022-10-02T01:59:38.000Z,13.0
2022-10-02T01:59:53.000Z,13.0
2022-10-02T02:00:08.000Z,13.0
2022-10-02T02:00:23.000Z,12.899999618530273
2022-10-02T02:00:38.000Z,12.899999618530273
2022-10-02T02:00:53.000Z,13.0
2022-10-02T02:01:08.000Z,13.0
2022-10-02T02:01:23.000Z,13.0
2022-10-02T02:01:38.000Z,13.0
2022-10-02T02:01:53.000Z,12.899999618530273
2022-10-02T02:02:08.000Z,12.899999618530273
2022-10-02T02:02:23.000Z,12.899999618530273
2022-10-02T02:02:38.000Z,13.0
2022-10-02T02:02:53.000Z,13.0
2022-10-02T02:03:08.000Z,13.0
2022-10-02T02:03:23.000Z,13.0
2022-10-02T02:03:38.000Z,13.0
2022-10-02T02:03:53.000Z,13.0
2022-10-02T02:04:08.000Z,13.0
2022-10-02T02:04:22.000Z,13.0
2022-10-02T02:04:37.000Z,13.0
2022-10-02T02:04:52.000Z,12.899999618530273
2022-10-02T02:05:08.000Z,12.899999618530273
2022-10-02T02:05:23.000Z,12.899999618530273
2022-10-02T02:05:38.000Z,12.899999618530273
2022-10-02T02:05:53.000Z,12.899999618530273
2022-10-02T02:06:08.000Z,12.899999618530273
2022-10-02T02:06:23.000Z,12.899999618530273
2022-10-02T02:06:38.000Z,12.800000190734863
2022-10-02T02:06:53.000Z,12.800000190734863
2022-10-02T02:07:08.000Z,12.899999618530273
2022-10-02T02:07:23.000Z,12.899999618530273
2022-10-02T02:07:38.000Z,12.899999618530273
2022-10-02T02:07:53.000Z,12.899999618530273
2022-10-02T02:08:08.000Z,13.0
2022-10-02T02:08:23.000Z,12.899999618530273
2022-10-02T02:08:38.000Z,13.0
2022-10-02T02:08:53.000Z,13.0
2022-10-02T02:09:08.000Z,12.899999618530273
2022-10-02T02:09:23.000Z,13.0
2022-10-02T02:09:38.000Z,13.0
2022-10-02T02:09:53.000Z,13.0
2022-10-02T02:10:08.000Z,13.0
2022-10-02T02:10:23.000Z,13.0
2022-10-02T02:10:38.000Z,13.0
2022-10-02T02:10:53.000Z,13.0
2022-10-02T02:11:07.000Z,13.0
2022-10-02T02:11:22.000Z,13.0
2022-10-02T02:11:37.000Z,13.0
2022-10-02T02:11:53.000Z,13.0
2022-10-02T02:12:08.000Z,13.0
2022-10-02T02:12:23.000Z,13.0
2022-10-02T02:12:38.000Z,13.0
2022-10-02T02:12:53.000Z,13.0
2022-10-02T02:13:08.000Z,13.0
2022-10-02T02:13:23.000Z,13.0
2022-10-02T02:13:38.000Z,13.0
2022-10-02T02:13:53.000Z,13.0
2022-10-02T02:14:08.000Z,13.0
2022-10-02T02:14:23.000Z,13.0
2022-10-02T02:14:38.000Z,13.0
2022-10-02T02:14:53.000Z,13.0
2022-10-02T02:15:08.000Z,12.800000190734863
2022-10-02T02:15:23.000Z,12.899999618530273
2022-10-02T02:15:38.000Z,12.899999618530273
2022-10-02T02:15:53.000Z,12.899999618530273
2022-10-02T02:16:08.000Z,12.899999618530273
2022-10-02T02:16:23.000Z,12.899999618530273
2022-10-02T02:16:38.000Z,12.899999618530273
2022-10-02T02:16:53.000Z,12.800000190734863
2022-10-02T02:17:08.000Z,12.699999809265137
2022-10-02T02:17:23.000Z,12.800000190734863
2022-10-02T02:17:38.000Z,12.800000190734863
2022-10-02T02:17:53.000Z,12.800000190734863
2022-10-02T02:18:07.000Z,12.899999618530273
2022-10-02T02:18:22.000Z,12.899999618530273
2022-10-02T02:18:37.000Z,12.899999618530273
2022-10-02T02:18:53.000Z,12.899999618530273
2022-10-02T02:19:08.000Z,12.899999618530273
2022-10-02T02:19:23.000Z,12.899999618530273
2022-10-02T02:19:38.000Z,12.899999618530273
2022-10-02T02:19:53.000Z,12.899999618530273
2022-10-02T02:20:08.000Z,12.899999618530273
2022-10-02T02:20:23.000Z,12.899999618530273
2022-10-02T02:20:38.000Z,12.899999618530273
2022-10-02T02:20:53.000Z,12.899999618530273
2022-10-02T02:21:08.000Z,12.899999618530273
2022-10-02T02:21:23.000Z,12.899999618530273
2022-10-02T02:21:38.000Z,12.899999618530273
2022-10-02T02:21:53.000Z,12.800000190734863
2022-10-02T02:22:08.000Z,12.800000190734863
2022-10-02T02:22:23.000Z,12.800000190734863
2022-10-02T02:22:38.000Z,12.800000190734863
2022-10-02T02:22:53.000Z,12.800000190734863
2022-10-02T02:23:08.000Z,12.899999618530273
2022-10-02T02:23:23.000Z,12.899999618530273
2022-10-02T02:23:38.000Z,12.899999618530273
2022-10-02T02:23:53.000Z,12.899999618530273
2022-10-02T02:24:08.000Z,12.899999618530273
2022-10-02T02:24:23.000Z,12.899999618530273
2022-10-02T02:24:38.000Z,12.899999618530273
2022-10-02T02:24:53.000Z,12.899999618530273
2022-10-02T02:25:07.000Z,12.899999618530273
2022-10-02T02:25:22.000Z,12.899999618530273
2022-10-02T02:25:37.000Z,12.800000190734863
2022-10-02T02:25:53.000Z,12.800000190734863
2022-10-02T02:26:08.000Z,12.899999618530273
2022-10-02T02:26:23.000Z,12.800000190734863
2022-10-02T02:26:38.000Z,12.899999618530273
2022-10-02T02:26:53.000Z,12.800000190734863
2022-10-02T02:27:08.000Z,12.800000190734863
2022-10-02T02:27:23.000Z,12.899999618530273
2022-10-02T02:27:38.000Z,12.800000190734863
2022-10-02T02:27:53.000Z,12.800000190734863